sensor_id;sensor_type;location;lat;lon;timestamp;pressure;altitude;pressure_sealevel;temperature;humidity
13407;BME280;6774;48.208;10.766;2023-08-30T00:00:57;94985.84;;;13.52;97.94
13407;BME280;6774;48.208;10.766;2023-08-30T00:03:24;94990.72;;;13.55;97.86
13407;BME280;6774;48.208;10.766;2023-08-30T00:05:52;94984.22;;;13.51;97.88
13407;BME280;6774;48.208;10.766;2023-08-30T00:08:21;94979.31;;;13.54;97.95
13407;BME280;6774;48.208;10.766;2023-08-30T00:10:49;94982.16;;;13.53;97.97
13407;BME280;6774;48.208;10.766;2023-08-30T00:13:19;94977.47;;;13.55;97.80
13407;BME280;6774;48.208;10.766;2023-08-30T00:15:46;94976.50;;;13.49;97.97
13407;BME280;6774;48.208;10.766;2023-08-30T00:18:14;94978.50;;;13.54;97.75
13407;BME280;6774;48.208;10.766;2023-08-30T00:20:42;94981.28;;;13.59;97.53
13407;BME280;6774;48.208;10.766;2023-08-30T00:23:09;94973.94;;;13.61;97.46
13407;BME280;6774;48.208;10.766;2023-08-30T00:25:37;94977.59;;;13.60;97.11
13407;BME280;6774;48.208;10.766;2023-08-30T00:28:05;94974.38;;;13.58;97.33
13407;BME280;6774;48.208;10.766;2023-08-30T00:30:35;94970.69;;;13.59;97.10
13407;BME280;6774;48.208;10.766;2023-08-30T00:33:03;94971.94;;;13.56;97.30
13407;BME280;6774;48.208;10.766;2023-08-30T00:35:31;94979.38;;;13.48;97.33
13407;BME280;6774;48.208;10.766;2023-08-30T00:38:00;94970.31;;;13.55;97.15
13407;BME280;6774;48.208;10.766;2023-08-30T00:40:28;94970.75;;;13.52;96.85
13407;BME280;6774;48.208;10.766;2023-08-30T00:42:57;94969.94;;;13.52;96.96
13407;BME280;6774;48.208;10.766;2023-08-30T00:45:24;94975.19;;;13.58;96.78
13407;BME280;6774;48.208;10.766;2023-08-30T00:47:54;94973.94;;;13.61;96.75
13407;BME280;6774;48.208;10.766;2023-08-30T00:50:24;94973.50;;;13.64;96.57
13407;BME280;6774;48.208;10.766;2023-08-30T00:52:51;94965.97;;;13.61;96.53
13407;BME280;6774;48.208;10.766;2023-08-30T00:55:19;94967.81;;;13.60;96.41
13407;BME280;6774;48.208;10.766;2023-08-30T00:57:47;94966.19;;;13.59;96.53
13407;BME280;6774;48.208;10.766;2023-08-30T01:00:15;94969.06;;;13.58;96.52
13407;BME280;6774;48.208;10.766;2023-08-30T01:02:44;94965.84;;;13.56;96.61
13407;BME280;6774;48.208;10.766;2023-08-30T01:05:13;94974.81;;;13.55;96.39
13407;BME280;6774;48.208;10.766;2023-08-30T01:07:42;94964.63;;;13.52;96.53
13407;BME280;6774;48.208;10.766;2023-08-30T01:10:09;94965.66;;;13.51;96.56
13407;BME280;6774;48.208;10.766;2023-08-30T01:12:40;94965.75;;;13.44;96.61
13407;BME280;6774;48.208;10.766;2023-08-30T01:15:12;94961.09;;;13.40;96.60
13407;BME280;6774;48.208;10.766;2023-08-30T01:17:41;94960.66;;;13.43;96.49
13407;BME280;6774;48.208;10.766;2023-08-30T01:20:10;94965.66;;;13.51;96.31
13407;BME280;6774;48.208;10.766;2023-08-30T01:22:47;94963.31;;;13.61;95.89
13407;BME280;6774;48.208;10.766;2023-08-30T01:25:27;94961.28;;;13.63;95.36
13407;BME280;6774;48.208;10.766;2023-08-30T01:28:04;94957.22;;;13.60;95.53
13407;BME280;6774;48.208;10.766;2023-08-30T01:30:34;94949.47;;;13.59;95.75
13407;BME280;6774;48.208;10.766;2023-08-30T01:33:04;94952.78;;;13.36;96.18
13407;BME280;6774;48.208;10.766;2023-08-30T01:35:33;94950.44;;;13.46;95.89
13407;BME280;6774;48.208;10.766;2023-08-30T01:38:03;94957.41;;;13.41;96.09
13407;BME280;6774;48.208;10.766;2023-08-30T01:40:36;94960.38;;;13.51;95.95
13407;BME280;6774;48.208;10.766;2023-08-30T01:43:07;94960.38;;;13.51;95.87
13407;BME280;6774;48.208;10.766;2023-08-30T01:45:39;94962.16;;;13.57;95.81
13407;BME280;6774;48.208;10.766;2023-08-30T01:48:10;94962.16;;;13.57;95.90
13407;BME280;6774;48.208;10.766;2023-08-30T01:50:39;94958.31;;;13.53;95.75
13407;BME280;6774;48.208;10.766;2023-08-30T01:53:09;94963.03;;;13.51;95.87
13407;BME280;6774;48.208;10.766;2023-08-30T01:55:39;94961.56;;;13.55;96.15
13407;BME280;6774;48.208;10.766;2023-08-30T01:58:09;94961.13;;;13.58;95.75
13407;BME280;6774;48.208;10.766;2023-08-30T02:00:37;94969.28;;;13.56;95.92
13407;BME280;6774;48.208;10.766;2023-08-30T02:03:09;94961.69;;;13.60;95.81
13407;BME280;6774;48.208;10.766;2023-08-30T02:06:00;94960.53;;;13.56;95.71
13407;BME280;6774;48.208;10.766;2023-08-30T02:08:36;94959.41;;;13.45;95.95
13407;BME280;6774;48.208;10.766;2023-08-30T02:11:09;94952.59;;;13.31;96.14
13407;BME280;6774;48.208;10.766;2023-08-30T02:13:41;94954.19;;;13.07;96.85
13407;BME280;6774;48.208;10.766;2023-08-30T02:16:12;94953.19;;;13.08;97.28
13407;BME280;6774;48.208;10.766;2023-08-30T02:18:41;94955.22;;;13.06;97.35
13407;BME280;6774;48.208;10.766;2023-08-30T02:21:10;94949.13;;;13.05;97.20
13407;BME280;6774;48.208;10.766;2023-08-30T02:23:38;94946.25;;;13.07;96.96
13407;BME280;6774;48.208;10.766;2023-08-30T02:26:06;94954.81;;;13.09;97.01
13407;BME280;6774;48.208;10.766;2023-08-30T02:28:33;94956.16;;;13.18;96.99
13407;BME280;6774;48.208;10.766;2023-08-30T02:31:02;94951.91;;;13.17;96.58
13407;BME280;6774;48.208;10.766;2023-08-30T02:33:30;94957.38;;;13.22;96.61
13407;BME280;6774;48.208;10.766;2023-08-30T02:35:58;94948.56;;;13.28;96.51
13407;BME280;6774;48.208;10.766;2023-08-30T02:38:26;94946.06;;;13.33;96.24
13407;BME280;6774;48.208;10.766;2023-08-30T02:40:53;94942.75;;;13.38;96.13
13407;BME280;6774;48.208;10.766;2023-08-30T02:43:21;94943.56;;;13.38;95.90
13407;BME280;6774;48.208;10.766;2023-08-30T02:45:51;94944.09;;;13.47;95.81
13407;BME280;6774;48.208;10.766;2023-08-30T02:48:21;94945.50;;;13.50;95.24
13407;BME280;6774;48.208;10.766;2023-08-30T02:50:49;94940.78;;;13.52;95.13
13407;BME280;6774;48.208;10.766;2023-08-30T02:53:17;94941.41;;;13.54;94.99
13407;BME280;6774;48.208;10.766;2023-08-30T02:55:46;94941.00;;;13.50;94.95
13407;BME280;6774;48.208;10.766;2023-08-30T02:58:14;94946.38;;;13.44;95.03
13407;BME280;6774;48.208;10.766;2023-08-30T03:00:42;94937.47;;;13.38;95.21
13407;BME280;6774;48.208;10.766;2023-08-30T03:03:10;94938.56;;;13.49;94.56
13407;BME280;6774;48.208;10.766;2023-08-30T03:05:39;94942.25;;;13.48;94.61
13407;BME280;6774;48.208;10.766;2023-08-30T03:08:08;94944.97;;;13.41;94.60
13407;BME280;6774;48.208;10.766;2023-08-30T03:10:36;94948.44;;;13.42;94.58
13407;BME280;6774;48.208;10.766;2023-08-30T03:13:04;94940.88;;;13.20;95.10
13407;BME280;6774;48.208;10.766;2023-08-30T03:15:32;94948.13;;;13.31;94.96
13407;BME280;6774;48.208;10.766;2023-08-30T03:18:01;94948.31;;;13.05;95.67
13407;BME280;6774;48.208;10.766;2023-08-30T03:20:29;94942.72;;;13.20;95.94
13407;BME280;6774;48.208;10.766;2023-08-30T03:22:58;94946.13;;;13.27;95.68
13407;BME280;6774;48.208;10.766;2023-08-30T03:25:28;94956.34;;;13.23;95.58
13407;BME280;6774;48.208;10.766;2023-08-30T03:27:56;94940.84;;;13.27;95.84
13407;BME280;6774;48.208;10.766;2023-08-30T03:30:24;94949.59;;;13.27;95.72
13407;BME280;6774;48.208;10.766;2023-08-30T03:32:52;94958.78;;;13.25;95.33
13407;BME280;6774;48.208;10.766;2023-08-30T03:35:20;94955.47;;;13.29;95.47
13407;BME280;6774;48.208;10.766;2023-08-30T03:37:49;94950.19;;;13.29;95.54
13407;BME280;6774;48.208;10.766;2023-08-30T03:40:19;94953.88;;;13.28;95.34
13407;BME280;6774;48.208;10.766;2023-08-30T03:42:47;94957.16;;;13.24;95.45
13407;BME280;6774;48.208;10.766;2023-08-30T03:45:15;94960.34;;;13.07;96.25
13407;BME280;6774;48.208;10.766;2023-08-30T03:47:43;94960.97;;;13.03;96.75
13407;BME280;6774;48.208;10.766;2023-08-30T03:50:11;94959.66;;;13.12;96.59
13407;BME280;6774;48.208;10.766;2023-08-30T03:52:39;94954.88;;;13.02;97.01
13407;BME280;6774;48.208;10.766;2023-08-30T03:55:07;94953.59;;;13.05;97.08
13407;BME280;6774;48.208;10.766;2023-08-30T03:57:36;94961.47;;;13.18;97.18
13407;BME280;6774;48.208;10.766;2023-08-30T04:00:05;94957.19;;;13.17;97.12
13407;BME280;6774;48.208;10.766;2023-08-30T04:02:39;94952.75;;;13.11;97.42
13407;BME280;6774;48.208;10.766;2023-08-30T04:05:08;94958.63;;;13.13;97.52
13407;BME280;6774;48.208;10.766;2023-08-30T04:07:37;94959.66;;;13.12;97.33
13407;BME280;6774;48.208;10.766;2023-08-30T04:10:05;94964.13;;;13.18;97.19
13407;BME280;6774;48.208;10.766;2023-08-30T04:12:33;94955.53;;;13.16;97.34
13407;BME280;6774;48.208;10.766;2023-08-30T04:15:03;94960.84;;;13.16;97.41
13407;BME280;6774;48.208;10.766;2023-08-30T04:17:31;94965.31;;;13.22;97.31
13407;BME280;6774;48.208;10.766;2023-08-30T04:19:59;94957.19;;;13.17;97.41
13407;BME280;6774;48.208;10.766;2023-08-30T04:22:31;94956.56;;;13.15;97.35
13407;BME280;6774;48.208;10.766;2023-08-30T04:25:01;94960.34;;;13.07;97.51
13407;BME280;6774;48.208;10.766;2023-08-30T04:27:29;94951.50;;;13.14;97.64
13407;BME280;6774;48.208;10.766;2023-08-30T04:29:57;94955.19;;;13.13;97.28
13407;BME280;6774;48.208;10.766;2023-08-30T04:32:26;94950.91;;;13.12;97.19
13407;BME280;6774;48.208;10.766;2023-08-30T04:34:54;94947.91;;;13.08;97.72
13407;BME280;6774;48.208;10.766;2023-08-30T04:37:22;94942.59;;;13.08;97.82
13407;BME280;6774;48.208;10.766;2023-08-30T04:39:50;94949.06;;;13.12;97.57
13407;BME280;6774;48.208;10.766;2023-08-30T04:42:18;94946.88;;;13.09;97.81
13407;BME280;6774;48.208;10.766;2023-08-30T04:44:45;94949.44;;;13.16;97.46
13407;BME280;6774;48.208;10.766;2023-08-30T04:47:13;94952.09;;;13.16;97.52
13407;BME280;6774;48.208;10.766;2023-08-30T04:49:42;94962.66;;;13.22;97.27
13407;BME280;6774;48.208;10.766;2023-08-30T04:52:11;94954.53;;;13.17;97.15
13407;BME280;6774;48.208;10.766;2023-08-30T04:54:39;94951.09;;;13.17;97.06
13407;BME280;6774;48.208;10.766;2023-08-30T04:57:08;94953.34;;;13.13;96.90
13407;BME280;6774;48.208;10.766;2023-08-30T04:59:40;94946.22;;;13.14;97.09
13407;BME280;6774;48.208;10.766;2023-08-30T05:02:09;94951.09;;;13.17;97.63
13407;BME280;6774;48.208;10.766;2023-08-30T05:04:45;94953.94;;;13.15;97.31
13407;BME280;6774;48.208;10.766;2023-08-30T05:07:13;94945.75;;;13.23;97.42
13407;BME280;6774;48.208;10.766;2023-08-30T05:09:41;94956.56;;;13.22;97.35
13407;BME280;6774;48.208;10.766;2023-08-30T05:12:09;94957.59;;;13.14;97.33
13407;BME280;6774;48.208;10.766;2023-08-30T05:14:37;94952.72;;;13.18;97.49
13407;BME280;6774;48.208;10.766;2023-08-30T05:17:05;94955.19;;;13.13;97.41
13407;BME280;6774;48.208;10.766;2023-08-30T05:19:33;94955.19;;;13.13;97.81
13407;BME280;6774;48.208;10.766;2023-08-30T05:22:05;94948.63;;;13.15;97.36
13407;BME280;6774;48.208;10.766;2023-08-30T05:24:35;94954.31;;;13.19;97.54
13407;BME280;6774;48.208;10.766;2023-08-30T05:27:03;94950.25;;;13.16;97.53
13407;BME280;6774;48.208;10.766;2023-08-30T05:29:37;94953.06;;;13.28;97.28
13407;BME280;6774;48.208;10.766;2023-08-30T05:32:05;94955.44;;;13.36;97.16
13407;BME280;6774;48.208;10.766;2023-08-30T05:34:52;94954.00;;;13.33;97.26
13407;BME280;6774;48.208;10.766;2023-08-30T05:37:41;94957.47;;;13.34;96.83
13407;BME280;6774;48.208;10.766;2023-08-30T05:40:24;94959.09;;;13.35;96.82
13407;BME280;6774;48.208;10.766;2023-08-30T05:43:14;94953.06;;;13.28;97.42
13407;BME280;6774;48.208;10.766;2023-08-30T05:45:42;94954.94;;;13.21;97.80
13407;BME280;6774;48.208;10.766;2023-08-30T05:48:11;94956.00;;;13.13;98.06
13407;BME280;6774;48.208;10.766;2023-08-30T05:50:38;94950.69;;;13.20;98.21
13407;BME280;6774;48.208;10.766;2023-08-30T05:53:08;94940.88;;;13.20;97.85
13407;BME280;6774;48.208;10.766;2023-08-30T05:55:37;94949.22;;;13.42;97.55
13407;BME280;6774;48.208;10.766;2023-08-30T05:58:05;94954.94;;;13.46;96.99
13407;BME280;6774;48.208;10.766;2023-08-30T06:00:33;94954.31;;;13.44;96.90
13407;BME280;6774;48.208;10.766;2023-08-30T06:03:01;94965.84;;;13.56;96.65
13407;BME280;6774;48.208;10.766;2023-08-30T06:05:29;94965.63;;;13.57;96.45
13407;BME280;6774;48.208;10.766;2023-08-30T06:07:57;94965.44;;;13.52;96.12
13407;BME280;6774;48.208;10.766;2023-08-30T06:10:26;94965.25;;;13.54;96.03
13407;BME280;6774;48.208;10.766;2023-08-30T06:12:54;94969.25;;;13.38;96.24
13407;BME280;6774;48.208;10.766;2023-08-30T06:15:22;94971.13;;;13.56;96.25
13407;BME280;6774;48.208;10.766;2023-08-30T06:17:49;94968.94;;;13.71;96.15
13407;BME280;6774;48.208;10.766;2023-08-30T06:20:17;94974.00;;;13.54;95.57
13407;BME280;6774;48.208;10.766;2023-08-30T06:22:45;94970.75;;;13.52;95.95
13407;BME280;6774;48.208;10.766;2023-08-30T06:25:13;94984.97;;;13.58;95.02
13407;BME280;6774;48.208;10.766;2023-08-30T06:27:54;94972.59;;;13.52;95.61
13407;BME280;6774;48.208;10.766;2023-08-30T06:30:22;94986.78;;;13.39;96.10
13407;BME280;6774;48.208;10.766;2023-08-30T06:32:50;94986.47;;;13.29;95.88
13407;BME280;6774;48.208;10.766;2023-08-30T06:35:18;94981.75;;;13.56;95.45
13407;BME280;6774;48.208;10.766;2023-08-30T06:37:45;94982.91;;;13.60;96.14
13407;BME280;6774;48.208;10.766;2023-08-30T06:40:13;94978.63;;;13.41;96.04
13407;BME280;6774;48.208;10.766;2023-08-30T06:42:42;94981.00;;;13.67;95.67
13407;BME280;6774;48.208;10.766;2023-08-30T06:45:10;94979.47;;;13.78;95.54
13407;BME280;6774;48.208;10.766;2023-08-30T06:47:38;94975.88;;;13.90;95.37
13407;BME280;6774;48.208;10.766;2023-08-30T06:50:07;94976.88;;;13.89;95.64
13407;BME280;6774;48.208;10.766;2023-08-30T06:52:36;94971.09;;;13.99;95.13
13407;BME280;6774;48.208;10.766;2023-08-30T06:55:04;94966.59;;;14.00;95.52
13407;BME280;6774;48.208;10.766;2023-08-30T06:57:32;94957.22;;;13.97;94.46
13407;BME280;6774;48.208;10.766;2023-08-30T07:00:01;94967.59;;;14.17;95.00
13407;BME280;6774;48.208;10.766;2023-08-30T07:02:36;94965.91;;;14.22;94.28
13407;BME280;6774;48.208;10.766;2023-08-30T07:05:05;94964.63;;;14.25;93.92
13407;BME280;6774;48.208;10.766;2023-08-30T07:07:33;94957.69;;;14.42;93.53
13407;BME280;6774;48.208;10.766;2023-08-30T07:10:00;94958.09;;;14.28;92.47
13407;BME280;6774;48.208;10.766;2023-08-30T07:12:29;94952.94;;;14.63;93.53
13407;BME280;6774;48.208;10.766;2023-08-30T07:14:57;94955.16;;;14.66;92.14
13407;BME280;6774;48.208;10.766;2023-08-30T07:17:26;94955.88;;;14.24;92.99
13407;BME280;6774;48.208;10.766;2023-08-30T07:20:12;94955.94;;;14.36;92.96
13407;BME280;6774;48.208;10.766;2023-08-30T07:22:40;94953.34;;;14.48;91.75
13407;BME280;6774;48.208;10.766;2023-08-30T07:25:08;94957.44;;;14.44;91.84
13407;BME280;6774;48.208;10.766;2023-08-30T07:27:36;94965.56;;;14.79;92.60
13407;BME280;6774;48.208;10.766;2023-08-30T07:30:05;94961.78;;;14.87;91.52
13407;BME280;6774;48.208;10.766;2023-08-30T07:32:35;94961.69;;;14.93;92.21
13407;BME280;6774;48.208;10.766;2023-08-30T07:35:05;94962.31;;;14.65;91.67
13407;BME280;6774;48.208;10.766;2023-08-30T07:37:34;94965.53;;;14.67;90.43
13407;BME280;6774;48.208;10.766;2023-08-30T07:40:02;94956.03;;;14.60;91.34
13407;BME280;6774;48.208;10.766;2023-08-30T07:42:31;94953.59;;;14.88;89.53
13407;BME280;6774;48.208;10.766;2023-08-30T07:44:59;94959.63;;;14.95;90.29
13407;BME280;6774;48.208;10.766;2023-08-30T07:47:27;94955.44;;;14.99;91.00
13407;BME280;6774;48.208;10.766;2023-08-30T07:49:56;94959.53;;;15.25;90.56
13407;BME280;6774;48.208;10.766;2023-08-30T07:52:23;94960.56;;;15.01;90.19
13407;BME280;6774;48.208;10.766;2023-08-30T07:55:11;94958.81;;;15.06;89.70
13407;BME280;6774;48.208;10.766;2023-08-30T07:57:38;94951.66;;;15.07;90.75
13407;BME280;6774;48.208;10.766;2023-08-30T08:00:07;94952.97;;;15.28;89.97
13407;BME280;6774;48.208;10.766;2023-08-30T08:02:39;94947.88;;;15.50;88.74
13407;BME280;6774;48.208;10.766;2023-08-30T08:05:08;94945.56;;;15.30;87.52
13407;BME280;6774;48.208;10.766;2023-08-30T08:07:38;94957.22;;;15.99;88.11
13407;BME280;6774;48.208;10.766;2023-08-30T08:10:07;94951.84;;;16.23;87.89
13407;BME280;6774;48.208;10.766;2023-08-30T08:12:36;94957.69;;;16.76;86.51
13407;BME280;6774;48.208;10.766;2023-08-30T08:15:05;94955.47;;;17.19;84.26
13407;BME280;6774;48.208;10.766;2023-08-30T08:17:33;94962.03;;;17.11;82.30
13407;BME280;6774;48.208;10.766;2023-08-30T08:20:00;94957.47;;;17.79;82.02
13407;BME280;6774;48.208;10.766;2023-08-30T08:22:30;94955.63;;;18.01;79.91
13407;BME280;6774;48.208;10.766;2023-08-30T08:24:59;94955.03;;;17.94;81.32
13407;BME280;6774;48.208;10.766;2023-08-30T08:27:27;94958.91;;;18.47;77.45
13407;BME280;6774;48.208;10.766;2023-08-30T08:29:54;94958.06;;;18.46;77.75
13407;BME280;6774;48.208;10.766;2023-08-30T08:32:22;94958.91;;;18.47;79.35
13407;BME280;6774;48.208;10.766;2023-08-30T08:34:50;94961.31;;;18.48;76.38
13407;BME280;6774;48.208;10.766;2023-08-30T08:37:18;94958.34;;;18.23;77.36
13407;BME280;6774;48.208;10.766;2023-08-30T08:39:47;94955.28;;;17.93;80.16
13407;BME280;6774;48.208;10.766;2023-08-30T08:42:18;94964.59;;;18.78;79.05
13407;BME280;6774;48.208;10.766;2023-08-30T08:44:46;94951.88;;;18.90;74.64
13407;BME280;6774;48.208;10.766;2023-08-30T08:47:16;94953.03;;;18.28;76.06
13407;BME280;6774;48.208;10.766;2023-08-30T08:49:44;94945.78;;;18.67;76.22
13407;BME280;6774;48.208;10.766;2023-08-30T08:52:13;94947.28;;;18.85;75.87
13407;BME280;6774;48.208;10.766;2023-08-30T08:54:56;94940.44;;;18.67;75.86
13407;BME280;6774;48.208;10.766;2023-08-30T08:57:26;94948.75;;;18.27;77.61
13407;BME280;6774;48.208;10.766;2023-08-30T08:59:55;94945.16;;;18.38;77.37
13407;BME280;6774;48.208;10.766;2023-08-30T09:02:24;94945.44;;;18.64;74.61
13407;BME280;6774;48.208;10.766;2023-08-30T09:04:52;94928.47;;;19.02;72.15
13407;BME280;6774;48.208;10.766;2023-08-30T09:07:20;94933.13;;;19.17;71.83
13407;BME280;6774;48.208;10.766;2023-08-30T09:09:48;94943.88;;;19.22;71.87
13407;BME280;6774;48.208;10.766;2023-08-30T09:12:18;94937.88;;;19.79;68.35
13407;BME280;6774;48.208;10.766;2023-08-30T09:14:53;94938.03;;;20.04;68.92
13407;BME280;6774;48.208;10.766;2023-08-30T09:17:21;94932.22;;;20.23;66.29
13407;BME280;6774;48.208;10.766;2023-08-30T09:19:49;94938.28;;;20.76;65.00
13407;BME280;6774;48.208;10.766;2023-08-30T09:22:17;94941.28;;;20.89;62.88
13407;BME280;6774;48.208;10.766;2023-08-30T09:24:45;94937.88;;;21.50;63.81
13407;BME280;6774;48.208;10.766;2023-08-30T09:27:13;94931.16;;;21.42;61.80
13407;BME280;6774;48.208;10.766;2023-08-30T09:29:42;94935.97;;;21.30;62.70
13407;BME280;6774;48.208;10.766;2023-08-30T09:32:12;94934.31;;;20.88;61.87
13407;BME280;6774;48.208;10.766;2023-08-30T09:34:45;94933.50;;;20.88;64.06
13407;BME280;6774;48.208;10.766;2023-08-30T09:37:20;94933.28;;;21.35;65.02
13407;BME280;6774;48.208;10.766;2023-08-30T09:39:49;94927.38;;;21.23;68.48
13407;BME280;6774;48.208;10.766;2023-08-30T09:42:17;94936.53;;;20.34;68.93
13407;BME280;6774;48.208;10.766;2023-08-30T09:44:47;94934.25;;;19.21;70.62
13407;BME280;6774;48.208;10.766;2023-08-30T09:47:16;94934.94;;;18.30;74.05
13407;BME280;6774;48.208;10.766;2023-08-30T09:49:45;94931.50;;;18.13;73.62
13407;BME280;6774;48.208;10.766;2023-08-30T09:52:14;94933.53;;;17.84;75.34
13407;BME280;6774;48.208;10.766;2023-08-30T09:54:45;94929.13;;;17.56;75.82
13407;BME280;6774;48.208;10.766;2023-08-30T09:57:13;94929.19;;;17.61;75.59
13407;BME280;6774;48.208;10.766;2023-08-30T09:59:43;94928.50;;;17.87;74.92
13407;BME280;6774;48.208;10.766;2023-08-30T10:02:13;94926.25;;;17.79;75.84
13407;BME280;6774;48.208;10.766;2023-08-30T10:04:43;94926.75;;;17.59;75.49
13407;BME280;6774;48.208;10.766;2023-08-30T10:07:13;94923.03;;;17.77;73.83
13407;BME280;6774;48.208;10.766;2023-08-30T10:09:41;94926.94;;;17.70;72.27
13407;BME280;6774;48.208;10.766;2023-08-30T10:12:31;94914.31;;;17.65;73.09
13407;BME280;6774;48.208;10.766;2023-08-30T10:14:59;94914.59;;;17.85;74.68
13407;BME280;6774;48.208;10.766;2023-08-30T10:17:31;94916.28;;;18.13;74.08
13407;BME280;6774;48.208;10.766;2023-08-30T10:20:03;94909.47;;;18.23;72.82
13407;BME280;6774;48.208;10.766;2023-08-30T10:22:32;94912.09;;;18.44;71.58
13407;BME280;6774;48.208;10.766;2023-08-30T10:25:06;94909.38;;;18.39;73.01
13407;BME280;6774;48.208;10.766;2023-08-30T10:27:56;94912.31;;;18.65;71.32
13407;BME280;6774;48.208;10.766;2023-08-30T10:30:25;94904.13;;;18.71;70.58
13407;BME280;6774;48.208;10.766;2023-08-30T10:32:55;94908.16;;;19.06;69.02
13407;BME280;6774;48.208;10.766;2023-08-30T10:35:24;94911.59;;;19.71;66.76
13407;BME280;6774;48.208;10.766;2023-08-30T10:37:56;94896.78;;;20.05;66.78
13407;BME280;6774;48.208;10.766;2023-08-30T10:40:24;94899.50;;;20.15;65.71
13407;BME280;6774;48.208;10.766;2023-08-30T10:42:59;94903.53;;;20.18;63.53
13407;BME280;6774;48.208;10.766;2023-08-30T10:45:27;94900.56;;;20.14;62.75
13407;BME280;6774;48.208;10.766;2023-08-30T10:47:58;94896.78;;;20.10;63.40
13407;BME280;6774;48.208;10.766;2023-08-30T10:50:31;94904.66;;;20.32;63.29
13407;BME280;6774;48.208;10.766;2023-08-30T10:53:00;94896.41;;;20.44;62.14
13407;BME280;6774;48.208;10.766;2023-08-30T10:55:28;94894.47;;;20.34;62.42
13407;BME280;6774;48.208;10.766;2023-08-30T10:58:00;94893.81;;;21.00;62.00
13407;BME280;6774;48.208;10.766;2023-08-30T11:00:29;94889.25;;;21.46;60.43
13407;BME280;6774;48.208;10.766;2023-08-30T11:02:58;94890.22;;;21.96;58.29
13407;BME280;6774;48.208;10.766;2023-08-30T11:05:26;94885.66;;;22.07;57.30
13407;BME280;6774;48.208;10.766;2023-08-30T11:07:55;94886.72;;;22.01;58.18
13407;BME280;6774;48.208;10.766;2023-08-30T11:10:22;94885.75;;;21.56;56.78
13407;BME280;6774;48.208;10.766;2023-08-30T11:12:50;94891.41;;;21.60;58.88
13407;BME280;6774;48.208;10.766;2023-08-30T11:15:18;94885.50;;;21.52;57.68
13407;BME280;6774;48.208;10.766;2023-08-30T11:17:47;94888.66;;;21.75;57.50
13407;BME280;6774;48.208;10.766;2023-08-30T11:20:17;94886.28;;;21.68;57.12
13407;BME280;6774;48.208;10.766;2023-08-30T11:22:47;94886.22;;;21.83;58.41
13407;BME280;6774;48.208;10.766;2023-08-30T11:25:16;94885.22;;;21.39;60.30
13407;BME280;6774;48.208;10.766;2023-08-30T11:27:44;94880.94;;;20.92;58.62
13407;BME280;6774;48.208;10.766;2023-08-30T11:30:12;94873.69;;;20.92;55.97
13407;BME280;6774;48.208;10.766;2023-08-30T11:32:41;94878.78;;;21.55;55.18
13407;BME280;6774;48.208;10.766;2023-08-30T11:35:10;94878.63;;;22.11;56.21
13407;BME280;6774;48.208;10.766;2023-08-30T11:37:40;94864.28;;;22.31;57.03
13407;BME280;6774;48.208;10.766;2023-08-30T11:40:08;94875.66;;;22.18;56.73
13407;BME280;6774;48.208;10.766;2023-08-30T11:42:39;94874.22;;;22.40;59.21
13407;BME280;6774;48.208;10.766;2023-08-30T11:45:07;94867.94;;;21.91;60.09
13407;BME280;6774;48.208;10.766;2023-08-30T11:47:35;94878.53;;;22.36;61.12
13407;BME280;6774;48.208;10.766;2023-08-30T11:50:04;94872.28;;;21.86;60.52
13407;BME280;6774;48.208;10.766;2023-08-30T11:52:33;94871.75;;;21.74;60.31
13407;BME280;6774;48.208;10.766;2023-08-30T11:55:05;94871.22;;;21.77;62.51
13407;BME280;6774;48.208;10.766;2023-08-30T11:57:33;94871.72;;;21.95;60.16
13407;BME280;6774;48.208;10.766;2023-08-30T12:00:09;94868.59;;;20.96;60.77
13407;BME280;6774;48.208;10.766;2023-08-30T12:02:38;94871.00;;;20.92;59.88
13407;BME280;6774;48.208;10.766;2023-08-30T12:05:10;94876.13;;;21.14;61.23
13407;BME280;6774;48.208;10.766;2023-08-30T12:07:38;94873.94;;;20.76;63.16
13407;BME280;6774;48.208;10.766;2023-08-30T12:10:09;94878.25;;;20.97;64.85
13407;BME280;6774;48.208;10.766;2023-08-30T12:12:38;94872.91;;;21.22;63.23
13407;BME280;6774;48.208;10.766;2023-08-30T12:15:08;94868.06;;;21.04;63.19
13407;BME280;6774;48.208;10.766;2023-08-30T12:17:36;94865.91;;;21.16;61.19
13407;BME280;6774;48.208;10.766;2023-08-30T12:20:04;94860.00;;;21.24;63.16
13407;BME280;6774;48.208;10.766;2023-08-30T12:22:36;94860.56;;;21.42;62.35
13407;BME280;6774;48.208;10.766;2023-08-30T12:25:15;94863.75;;;21.18;61.17
13407;BME280;6774;48.208;10.766;2023-08-30T12:27:43;94863.78;;;21.13;61.16
13407;BME280;6774;48.208;10.766;2023-08-30T12:30:12;94863.22;;;20.91;59.71
13407;BME280;6774;48.208;10.766;2023-08-30T12:32:40;94860.00;;;21.19;59.65
13407;BME280;6774;48.208;10.766;2023-08-30T12:35:08;94855.72;;;21.28;58.69
13407;BME280;6774;48.208;10.766;2023-08-30T12:37:36;94851.41;;;21.38;59.76
13407;BME280;6774;48.208;10.766;2023-08-30T12:40:05;94854.63;;;21.45;60.24
13407;BME280;6774;48.208;10.766;2023-08-30T12:42:34;94845.56;;;21.31;58.97
13407;BME280;6774;48.208;10.766;2023-08-30T12:45:03;94845.81;;;21.34;61.05
13407;BME280;6774;48.208;10.766;2023-08-30T12:47:31;94851.97;;;21.24;60.49
13407;BME280;6774;48.208;10.766;2023-08-30T12:49:59;94847.16;;;21.32;60.32
13407;BME280;6774;48.208;10.766;2023-08-30T12:52:27;94850.09;;;21.35;62.03
13407;BME280;6774;48.208;10.766;2023-08-30T12:54:55;94850.88;;;21.00;65.67
13407;BME280;6774;48.208;10.766;2023-08-30T12:57:22;94849.28;;;21.29;64.45
13407;BME280;6774;48.208;10.766;2023-08-30T12:59:51;94846.06;;;21.38;62.49
13407;BME280;6774;48.208;10.766;2023-08-30T13:02:19;94846.06;;;21.43;64.16
13407;BME280;6774;48.208;10.766;2023-08-30T13:04:47;94846.34;;;20.95;63.52
13407;BME280;6774;48.208;10.766;2023-08-30T13:07:14;94844.47;;;20.86;66.09
13407;BME280;6774;48.208;10.766;2023-08-30T13:09:42;94847.66;;;21.08;63.24
13407;BME280;6774;48.208;10.766;2023-08-30T13:12:10;94845.78;;;20.83;63.02